OSX weather

Kosciusko Attala County Airport
Kosciusko, Mississippi, United States

Public forecast

Using degrees Fahrenheit for public forecast. Weather courtesy of forecast.io.

Closest aviation weather report (METAR) to Kosciusko Attala County Airport

Closest report is Winona–Montgomery County Airport, 24.4 nm (45.2 km) NNW. Retrieved UTC (0 seconds ago):

Closest aviation forecast (TAF) to Kosciusko Attala County Airport

Closest forecast is Greenwood–Leflore Airport, 36.5 nm (67.5 km) NW. Retrieved 2020-05-30 00:22 UTC (6 hours ago):

TAF KGWO 292320Z 3000/3024 36004KT P6SM SCT045